createdAt,value
2022-09-04T00:02:59.840Z,23.50
2022-09-04T00:05:45.758Z,23.50
2022-09-04T00:08:42.776Z,23.50
2022-09-04T00:11:39.306Z,23.40
2022-09-04T00:14:49.350Z,23.50
2022-09-04T00:17:44.577Z,23.70
2022-09-04T00:20:34.400Z,23.70
2022-09-04T00:23:34.544Z,23.60
2022-09-04T00:26:38.488Z,23.50
2022-09-04T00:29:58.989Z,23.50
2022-09-04T00:32:49.539Z,23.50
2022-09-04T00:35:59.883Z,23.50
2022-09-04T00:38:51.128Z,23.40
2022-09-04T00:41:41.069Z,23.30
2022-09-04T00:44:41.673Z,23.30
2022-09-04T00:47:52.802Z,23.20
2022-09-04T00:51:11.727Z,23.40
2022-09-04T00:54:16.116Z,23.40
2022-09-04T00:57:33.998Z,23.50
2022-09-04T01:00:21.984Z,23.40
2022-09-04T01:03:07.575Z,23.40
2022-09-04T01:06:26.143Z,23.40
2022-09-04T01:09:32.240Z,23.50
2022-09-04T01:12:42.563Z,23.50
2022-09-04T01:15:38.971Z,23.40
2022-09-04T01:19:06.111Z,23.40
2022-09-04T01:22:16.537Z,23.50
2022-09-04T01:25:25.614Z,23.50
2022-09-04T01:28:19.607Z,23.50
2022-09-04T01:31:25.250Z,23.50
2022-09-04T01:34:41.103Z,23.60
2022-09-04T01:37:52.126Z,23.50
2022-09-04T01:40:40.985Z,23.40
2022-09-04T01:43:27.308Z,23.30
2022-09-04T01:46:31.570Z,23.20
2022-09-04T01:49:23.655Z,23.20
2022-09-04T01:52:36.603Z,22.90
2022-09-04T01:55:42.658Z,22.90
2022-09-04T01:58:35.536Z,23.00
2022-09-04T02:01:41.726Z,23.00
2022-09-04T02:04:36.818Z,23.10
2022-09-04T02:07:40.651Z,23.00
2022-09-04T02:10:44.851Z,23.00
2022-09-04T02:14:04.565Z,22.90
2022-09-04T02:17:20.814Z,22.90
2022-09-04T02:20:18.952Z,23.00
2022-09-04T02:23:40.590Z,22.90
2022-09-04T02:27:16.081Z,22.80
2022-09-04T02:30:10.452Z,22.80
2022-09-04T02:33:31.522Z,22.70
2022-09-04T02:36:43.049Z,22.50
2022-09-04T02:39:47.336Z,22.60
2022-09-04T02:42:58.436Z,22.60
2022-09-04T02:46:05.897Z,22.70
2022-09-04T02:49:15.152Z,22.70
2022-09-04T02:52:15.492Z,22.60
2022-09-04T02:55:08.361Z,22.50
2022-09-04T02:58:23.632Z,22.40
2022-09-04T03:01:47.724Z,22.50
2022-09-04T03:05:26.918Z,22.40
2022-09-04T03:08:20.752Z,22.30
2022-09-04T03:11:35.178Z,22.30
2022-09-04T03:14:47.060Z,22.30
2022-09-04T03:17:48.754Z,22.20
2022-09-04T03:20:42.887Z,22.30
2022-09-04T03:23:48.661Z,22.20
2022-09-04T03:26:41.798Z,22.20
2022-09-04T03:29:40.144Z,22.10
2022-09-04T03:32:44.776Z,22.10
2022-09-04T03:35:37.799Z,22.10
2022-09-04T03:38:57.324Z,22.10
2022-09-04T03:42:05.175Z,22.10
2022-09-04T03:45:02.904Z,22.10
2022-09-04T03:47:51.544Z,22.20
2022-09-04T03:50:49.520Z,22.20
2022-09-04T03:53:44.351Z,22.20
2022-09-04T03:56:38.767Z,22.20
2022-09-04T03:59:42.924Z,22.10
2022-09-04T04:02:54.735Z,22.10
2022-09-04T04:05:59.455Z,22.20
2022-09-04T04:09:12.074Z,22.10
2022-09-04T04:12:16.443Z,21.90
2022-09-04T04:15:20.565Z,22.00
2022-09-04T04:18:30.768Z,21.90
2022-09-04T04:21:59.853Z,21.90
2022-09-04T04:25:06.401Z,21.80
2022-09-04T04:28:07.263Z,21.80
2022-09-04T04:30:59.148Z,21.80
2022-09-04T04:33:47.807Z,21.80
2022-09-04T04:37:06.390Z,21.80
2022-09-04T04:39:55.286Z,21.70
2022-09-04T04:43:09.526Z,21.70
2022-09-04T04:46:14.019Z,21.80
2022-09-04T04:49:00.136Z,21.80
2022-09-04T04:52:16.914Z,21.80
2022-09-04T04:55:21.405Z,21.90
2022-09-04T04:58:07.913Z,21.90
2022-09-04T05:01:01.255Z,22.00
2022-09-04T05:04:08.216Z,21.90
2022-09-04T05:07:28.114Z,21.90
2022-09-04T05:10:48.782Z,22.00
2022-09-04T05:14:01.930Z,21.90
2022-09-04T05:16:52.288Z,21.80
2022-09-04T05:19:53.784Z,21.90
2022-09-04T05:22:48.847Z,21.90
2022-09-04T05:25:37.602Z,21.90
2022-09-04T05:28:44.768Z,21.90
2022-09-04T05:31:42.158Z,21.90
2022-09-04T05:34:39.761Z,21.90
2022-09-04T05:37:50.358Z,22.00
2022-09-04T05:40:53.157Z,22.00
2022-09-04T05:44:09.174Z,22.00
2022-09-04T05:47:16.776Z,22.00
2022-09-04T05:50:05.217Z,22.00
2022-09-04T05:52:56.647Z,22.00
2022-09-04T05:55:51.467Z,22.00
2022-09-04T05:59:06.303Z,22.00
2022-09-04T06:02:31.948Z,22.00
2022-09-04T06:05:44.508Z,22.10
2022-09-04T06:08:42.516Z,22.00
2022-09-04T06:11:47.837Z,22.00
2022-09-04T06:14:57.025Z,22.10
2022-09-04T06:18:07.636Z,22.10
2022-09-04T06:21:11.844Z,22.20
2022-09-04T06:24:15.330Z,22.20
2022-09-04T06:27:03.829Z,22.30
2022-09-04T06:30:06.757Z,22.40
2022-09-04T06:33:13.278Z,22.30
2022-09-04T06:36:29.959Z,22.50
2022-09-04T06:39:21.571Z,22.50
2022-09-04T06:42:22.334Z,22.50
2022-09-04T06:45:37.844Z,22.60
2022-09-04T06:48:41.648Z,22.80
2022-09-04T06:51:59.740Z,22.90
2022-09-04T06:55:00.929Z,23.00
2022-09-04T06:58:05.331Z,22.90
2022-09-04T07:01:13.657Z,23.00
2022-09-04T07:04:36.633Z,23.10
2022-09-04T07:07:54.392Z,22.90
2022-09-04T07:10:45.006Z,22.90
2022-09-04T07:14:16.449Z,22.80
2022-09-04T07:17:23.573Z,22.90
2022-09-04T07:20:17.738Z,23.00
2022-09-04T07:23:10.137Z,23.00
2022-09-04T07:26:19.342Z,23.10
2022-09-04T07:29:37.469Z,23.20
2022-09-04T07:32:36.355Z,23.20
2022-09-04T07:35:33.204Z,23.10
2022-09-04T07:38:50.555Z,23.20
2022-09-04T07:41:51.262Z,23.30
2022-09-04T07:45:03.963Z,23.20
2022-09-04T07:48:08.371Z,23.30
2022-09-04T07:51:10.452Z,23.20
2022-09-04T07:54:22.597Z,23.30
2022-09-04T07:57:32.110Z,23.50
2022-09-04T08:00:21.123Z,23.50
2022-09-04T08:03:17.533Z,23.60
2022-09-04T08:06:14.154Z,23.50
2022-09-04T08:09:25.314Z,23.60
2022-09-04T08:12:49.050Z,23.60
2022-09-04T08:15:56.663Z,23.80
2022-09-04T08:18:56.384Z,23.80
2022-09-04T08:21:48.222Z,24.00
2022-09-04T08:25:02.004Z,24.00
2022-09-04T08:28:17.524Z,24.10
2022-09-04T08:31:24.296Z,24.10
2022-09-04T08:34:28.592Z,24.10
2022-09-04T08:37:33.373Z,24.10
2022-09-04T08:40:31.453Z,24.20
2022-09-04T08:43:38.445Z,24.10
2022-09-04T08:47:05.381Z,24.20
2022-09-04T08:50:14.265Z,24.30
2022-09-04T08:53:37.324Z,24.30
2022-09-04T08:56:37.667Z,24.20
2022-09-04T09:00:00.854Z,24.50
2022-09-04T09:03:04.873Z,24.50
2022-09-04T09:06:07.445Z,24.60
2022-09-04T09:09:18.078Z,24.70
2022-09-04T09:12:48.160Z,24.70
2022-09-04T09:15:56.060Z,24.90
2022-09-04T09:19:00.288Z,24.80
2022-09-04T09:21:57.933Z,24.80
2022-09-04T09:25:11.363Z,25.00
2022-09-04T09:28:08.861Z,25.10
2022-09-04T09:31:27.458Z,25.20
2022-09-04T09:34:32.085Z,25.20
2022-09-04T09:37:23.505Z,25.20
2022-09-04T09:40:30.834Z,25.30
2022-09-04T09:43:51.040Z,25.30
2022-09-04T09:46:48.843Z,25.50
2022-09-04T09:50:16.456Z,25.60
2022-09-04T09:53:20.369Z,25.60
2022-09-04T09:56:21.574Z,25.60
2022-09-04T09:59:25.149Z,25.50
2022-09-04T10:02:38.295Z,25.60
2022-09-04T10:05:46.163Z,25.90
2022-09-04T10:09:00.768Z,26.10
2022-09-04T10:12:23.928Z,26.00
2022-09-04T10:15:48.344Z,26.20
2022-09-04T10:18:57.091Z,26.40
2022-09-04T10:21:51.817Z,26.60
2022-09-04T10:25:02.314Z,26.70
2022-09-04T10:28:09.611Z,26.90
2022-09-04T10:31:23.611Z,26.90
2022-09-04T10:34:38.311Z,26.80
2022-09-04T10:38:11.463Z,26.70
2022-09-04T10:41:25.505Z,26.90
2022-09-04T10:44:55.335Z,26.90
2022-09-04T10:48:14.906Z,27.00
2022-09-04T10:51:20.934Z,27.10
2022-09-04T10:54:30.027Z,27.20
2022-09-04T10:57:43.363Z,27.30
2022-09-04T11:01:02.105Z,27.40
2022-09-04T11:04:27.113Z,27.60
2022-09-04T11:08:00.496Z,27.60
2022-09-04T11:11:07.822Z,27.80
2022-09-04T11:14:06.183Z,27.90
2022-09-04T11:17:01.803Z,27.90
2022-09-04T11:19:54.549Z,28.10
2022-09-04T11:22:40.147Z,28.00
2022-09-04T11:25:39.126Z,28.20
2022-09-04T11:28:47.752Z,28.20
2022-09-04T11:31:48.599Z,28.20
2022-09-04T11:35:18.108Z,28.10
2022-09-04T11:38:29.033Z,28.00
2022-09-04T11:41:52.224Z,27.90
2022-09-04T11:44:52.855Z,27.90
2022-09-04T11:47:54.451Z,28.00
2022-09-04T11:51:05.282Z,28.00
2022-09-04T11:53:53.847Z,28.00
2022-09-04T11:56:45.090Z,28.10
2022-09-04T12:00:12.528Z,28.40
2022-09-04T12:03:12.929Z,28.70
2022-09-04T12:06:49.505Z,28.70
2022-09-04T12:10:12.090Z,28.70
2022-09-04T12:13:22.616Z,28.80
2022-09-04T12:16:20.500Z,28.70
2022-09-04T12:19:27.175Z,28.90
2022-09-04T12:22:57.367Z,29.00
2022-09-04T12:26:05.332Z,29.30
2022-09-04T12:29:19.455Z,29.50
2022-09-04T12:32:30.662Z,29.60
2022-09-04T12:35:44.717Z,29.60
2022-09-04T12:38:39.192Z,29.60
2022-09-04T12:41:33.756Z,29.60
2022-09-04T12:44:38.460Z,29.90
2022-09-04T12:47:56.765Z,29.80
2022-09-04T12:50:57.567Z,29.90
2022-09-04T12:54:25.037Z,29.90
2022-09-04T12:57:39.461Z,30.40
2022-09-04T13:00:40.798Z,30.80
2022-09-04T13:03:59.775Z,30.90
2022-09-04T13:07:15.953Z,31.10
2022-09-04T13:10:14.016Z,31.50
2022-09-04T13:13:19.572Z,32.00
2022-09-04T13:16:20.885Z,33.90
2022-09-04T13:19:12.618Z,36.20
2022-09-04T13:22:07.251Z,38.20
2022-09-04T13:25:08.590Z,38.90
2022-09-04T13:28:19.163Z,39.70
2022-09-04T13:31:20.486Z,41.40
2022-09-04T13:34:16.975Z,40.80
2022-09-04T13:37:21.182Z,41.20
2022-09-04T13:40:26.609Z,42.40
2022-09-04T13:43:24.455Z,43.00
2022-09-04T13:46:17.622Z,41.70
2022-09-04T13:49:11.670Z,42.40
2022-09-04T13:52:07.339Z,42.00
2022-09-04T13:55:08.480Z,43.10
2022-09-04T13:58:01.517Z,43.80
2022-09-04T14:00:54.107Z,43.80
2022-09-04T14:03:46.241Z,44.30
2022-09-04T14:06:34.396Z,44.30
2022-09-04T14:09:20.044Z,45.00
2022-09-04T14:12:23.966Z,45.00
2022-09-04T14:15:41.787Z,44.50
2022-09-04T14:18:36.737Z,44.00
2022-09-04T14:21:52.804Z,43.30
2022-09-04T14:24:56.466Z,43.60
2022-09-04T14:28:03.534Z,45.30
2022-09-04T14:30:59.219Z,45.50
2022-09-04T14:34:13.656Z,44.80
2022-09-04T14:37:17.729Z,44.70
2022-09-04T14:40:30.302Z,44.30
2022-09-04T14:43:37.436Z,45.40
2022-09-04T14:46:55.744Z,44.90
2022-09-04T14:49:47.347Z,44.80
2022-09-04T14:52:41.696Z,44.20
2022-09-04T14:55:30.749Z,45.80
2022-09-04T14:58:29.749Z,46.50
2022-09-04T15:01:23.579Z,47.20
2022-09-04T15:04:21.775Z,46.00
2022-09-04T15:07:29.798Z,45.10
2022-09-04T15:10:28.576Z,45.10
2022-09-04T15:13:47.021Z,45.80
2022-09-04T15:16:49.867Z,43.50
2022-09-04T15:19:53.007Z,44.00
2022-09-04T15:22:57.169Z,44.30
2022-09-04T15:26:00.506Z,44.40
2022-09-04T15:28:54.240Z,45.20
2022-09-04T15:31:41.976Z,46.00
2022-09-04T15:34:30.145Z,45.40
2022-09-04T15:37:27.247Z,44.80
2022-09-04T15:40:21.663Z,45.00
2022-09-04T15:43:16.326Z,45.20
2022-09-04T15:46:15.883Z,44.40
2022-09-04T15:49:23.269Z,43.60
2022-09-04T15:52:21.417Z,43.20
2022-09-04T15:55:27.842Z,43.60
2022-09-04T15:58:13.436Z,44.60
2022-09-04T16:01:16.886Z,45.00
2022-09-04T16:04:42.234Z,44.70
2022-09-04T16:07:46.542Z,44.50
2022-09-04T16:10:46.768Z,43.50
2022-09-04T16:13:41.412Z,42.00
2022-09-04T16:16:32.682Z,42.30
2022-09-04T16:19:36.480Z,41.60
2022-09-04T16:22:47.731Z,42.40
2022-09-04T16:25:40.607Z,43.30
2022-09-04T16:28:43.834Z,43.30
2022-09-04T16:31:34.585Z,42.90
2022-09-04T16:34:32.908Z,42.40
2022-09-04T16:37:22.528Z,42.70
2022-09-04T16:40:30.026Z,41.80
2022-09-04T16:43:32.095Z,41.70
2022-09-04T16:46:31.437Z,41.00
2022-09-04T16:49:30.584Z,41.50
2022-09-04T16:52:21.148Z,40.60
2022-09-04T16:55:37.011Z,40.00
2022-09-04T16:58:54.700Z,39.60
2022-09-04T17:02:36.148Z,39.60
2022-09-04T17:05:34.982Z,39.90
2022-09-04T17:08:47.915Z,39.30
2022-09-04T17:11:55.511Z,38.20
2022-09-04T17:15:08.452Z,37.80
2022-09-04T17:17:54.462Z,38.40
2022-09-04T17:21:55.227Z,38.20
2022-09-04T17:28:56.382Z,38.20
2022-09-04T17:29:09.378Z,37.40
2022-09-04T17:30:31.808Z,36.20
2022-09-04T17:40:40.275Z,34.60
2022-09-04T17:40:43.842Z,35.60
2022-09-04T17:40:48.433Z,35.10
2022-09-04T17:44:03.478Z,34.30
2022-09-04T17:47:03.767Z,34.00
2022-09-04T17:49:51.998Z,33.80
2022-09-04T17:53:01.875Z,33.60
2022-09-04T17:55:50.793Z,33.30
2022-09-04T17:58:49.815Z,33.20
2022-09-04T18:02:10.215Z,33.00
2022-09-04T18:05:12.149Z,32.70
2022-09-04T18:08:29.674Z,32.50
2022-09-04T18:11:20.727Z,32.40
2022-09-04T18:14:31.841Z,32.20
2022-09-04T18:17:25.745Z,32.20
2022-09-04T18:20:37.504Z,32.00
2022-09-04T18:23:52.570Z,31.90
2022-09-04T18:26:49.942Z,31.80
2022-09-04T18:36:48.634Z,31.60
2022-09-04T18:37:16.429Z,31.40
2022-09-04T18:37:21.951Z,31.50
2022-09-04T18:39:44.740Z,31.30
2022-09-04T18:50:23.593Z,31.10
2022-09-04T18:50:38.083Z,31.00
2022-09-04T18:50:39.645Z,31.00
2022-09-04T18:52:55.302Z,30.80
2022-09-04T18:55:49.431Z,30.70
2022-09-04T18:58:44.692Z,30.70
2022-09-04T19:01:45.238Z,30.60
2022-09-04T19:04:37.446Z,30.50
2022-09-04T19:07:35.279Z,30.40
2022-09-04T19:10:29.951Z,30.30
2022-09-04T19:13:31.080Z,30.20
2022-09-04T19:16:35.247Z,30.20
2022-09-04T19:19:51.429Z,30.10
2022-09-04T19:22:49.610Z,30.00
2022-09-04T19:25:39.787Z,30.00
2022-09-04T19:28:39.959Z,29.90
2022-09-04T19:31:44.279Z,29.90
2022-09-04T19:34:40.602Z,29.80
2022-09-04T19:42:10.792Z,29.60
2022-09-04T19:46:05.765Z,29.60
2022-09-04T19:46:13.885Z,29.40
2022-09-04T19:47:31.590Z,29.40
2022-09-04T19:53:17.967Z,29.40
2022-09-04T19:54:08.672Z,29.30
2022-09-04T19:57:33.403Z,29.30
2022-09-04T20:00:42.378Z,29.20
2022-09-04T20:03:39.825Z,29.20
2022-09-04T20:06:33.167Z,29.10
2022-09-04T20:09:23.153Z,29.00
2022-09-04T20:12:15.019Z,29.00
2022-09-04T20:15:18.216Z,28.90
2022-09-04T20:18:22.557Z,28.80
2022-09-04T20:21:26.721Z,28.80
2022-09-04T20:24:26.690Z,28.80
2022-09-04T20:27:16.833Z,28.80
2022-09-04T20:30:24.762Z,28.70
2022-09-04T20:33:12.314Z,28.70
2022-09-04T20:36:02.339Z,28.60
2022-09-04T20:38:57.949Z,28.60
2022-09-04T20:42:04.452Z,28.50
2022-09-04T20:46:40.164Z,28.50
2022-09-04T20:52:54.895Z,28.40
2022-09-04T20:53:06.019Z,28.40
2022-09-04T20:54:44.882Z,28.30
2022-09-04T21:01:31.049Z,28.20
2022-09-04T21:03:18.063Z,28.10
2022-09-04T21:04:28.785Z,28.20
2022-09-04T21:07:27.553Z,28.10
2022-09-04T21:10:21.889Z,28.00
2022-09-04T21:13:34.593Z,28.00
2022-09-04T21:16:48.582Z,27.90
2022-09-04T21:19:55.865Z,28.00
2022-09-04T21:23:23.030Z,28.00
2022-09-04T21:26:11.047Z,28.00
2022-09-04T21:29:11.219Z,28.00
2022-09-04T21:32:19.613Z,27.90
2022-09-04T21:35:08.195Z,27.80
2022-09-04T21:38:12.057Z,27.80
2022-09-04T21:41:06.756Z,27.80
2022-09-04T21:43:58.042Z,27.80
2022-09-04T21:47:08.567Z,27.70
2022-09-04T21:50:32.291Z,27.70
2022-09-04T21:53:23.619Z,27.60
2022-09-04T22:02:20.244Z,27.50
2022-09-04T22:02:36.671Z,27.50
2022-09-04T22:02:54.483Z,27.50
2022-09-04T22:06:07.992Z,27.40
2022-09-04T22:13:31.539Z,27.40
2022-09-04T22:13:39.419Z,27.30
2022-09-04T22:16:03.244Z,27.30
2022-09-04T22:18:51.772Z,27.10
2022-09-04T22:21:43.572Z,27.00
2022-09-04T22:24:39.731Z,26.90
2022-09-04T22:28:09.150Z,27.00
2022-09-04T22:31:02.004Z,26.90
2022-09-04T22:34:14.918Z,26.80
2022-09-04T22:37:10.784Z,26.70
2022-09-04T22:40:26.182Z,26.60
2022-09-04T22:43:24.440Z,26.50
2022-09-04T22:46:30.510Z,26.40
2022-09-04T22:49:25.995Z,26.40
2022-09-04T22:52:36.740Z,26.40
2022-09-04T22:56:17.824Z,26.40
2022-09-04T22:59:27.000Z,26.40
2022-09-04T23:03:04.084Z,26.40
2022-09-04T23:09:09.420Z,26.30
2022-09-04T23:13:48.275Z,26.30
2022-09-04T23:13:59.988Z,26.20
2022-09-04T23:16:37.349Z,26.20
2022-09-04T23:26:34.951Z,26.10
2022-09-04T23:26:50.915Z,26.20
2022-09-04T23:26:59.656Z,26.30
2022-09-04T23:29:51.386Z,26.20
2022-09-04T23:33:06.748Z,26.20
2022-09-04T23:36:10.462Z,26.20
2022-09-04T23:39:16.751Z,26.20
2022-09-04T23:42:24.434Z,26.20
2022-09-04T23:45:36.763Z,26.10
2022-09-04T23:48:52.699Z,26.10
2022-09-04T23:51:44.303Z,26.00
2022-09-04T23:55:11.475Z,26.10
2022-09-04T23:58:30.211Z,26.10
